Shelby County Airport Alabaster US
ICAO: KEET
IATA: EET
Category: Medium
Scheduled Services: No

Elevation: 586 ft
TransAlt. 18000 ft.

Airport Communications:
BIRMINGHAM APP/DEP:123.8
ASOS:134.325
CTAF/UNICOM:122.7

KEET Zoom In..

Runways:

(A) RW 16 length 5000 ft width 75 ft
---- / hdg 160

(B) RW 34 length 5000 ft width 75 ft
---- / hdg 340

Location; KEET
Day. 24 / Time. 12.53 Zulu
* Altimeter: 30.10
* Temperature: 24° c. 75.2°f.
* Wind from: 320° Speed 03 kn.
Dewpoint: 22° c.
Visibility: 10 Statute Miles.
Clouds: Clear (automated report).

KEET 241253Z AUTO 32003KT 10SM CLR 24/22 A3010 RMK AO2 SLP186 T02440217


Wind From 320°
Speed 03 kn.

 
 
jpsmedia.com for Web Design SOUNDCLOUD worldairports.se 2018   terms of use